createdAt,value
2022-09-04T00:02:24.524Z,5.18
2022-09-04T00:05:03.098Z,5.57
2022-09-04T00:07:39.335Z,6.20
2022-09-04T00:10:13.192Z,5.65
2022-09-04T00:12:46.808Z,6.03
2022-09-04T00:15:19.352Z,6.10
2022-09-04T00:17:53.977Z,5.30
2022-09-04T00:20:35.413Z,6.03
2022-09-04T00:23:11.308Z,6.10
2022-09-04T00:28:16.984Z,5.70
2022-09-04T00:30:51.020Z,6.00
2022-09-04T00:33:26.718Z,5.93
2022-09-04T00:35:59.956Z,6.20
2022-09-04T00:38:39.128Z,5.88
2022-09-04T00:41:14.269Z,6.00
2022-09-04T00:44:08.569Z,6.13
2022-09-04T00:47:07.519Z,6.00
2022-09-04T00:50:01.004Z,6.15
2022-09-04T00:52:46.653Z,5.75
2022-09-04T00:55:29.428Z,5.45
2022-09-04T00:58:12.304Z,6.03
2022-09-04T01:00:40.292Z,6.20
2022-09-04T01:03:21.924Z,5.72
2022-09-04T01:06:20.264Z,5.13
2022-09-04T01:09:04.302Z,5.97
2022-09-04T01:11:40.583Z,6.22
2022-09-04T01:14:19.246Z,7.68
2022-09-04T01:16:50.423Z,6.50
2022-09-04T01:19:40.937Z,5.97
2022-09-04T01:22:22.783Z,5.50
2022-09-04T01:25:09.556Z,5.55
2022-09-04T01:27:51.363Z,5.65
2022-09-04T01:30:20.873Z,5.78
2022-09-04T01:33:05.409Z,6.88
2022-09-04T01:35:40.252Z,7.32
2022-09-04T01:38:14.915Z,7.78
2022-09-04T01:40:47.705Z,6.85
2022-09-04T01:43:20.886Z,6.45
2022-09-04T01:46:05.998Z,6.95
2022-09-04T01:48:45.017Z,6.15
2022-09-04T01:51:21.672Z,6.28
2022-09-04T01:54:03.355Z,5.40
2022-09-04T01:56:39.064Z,7.07
2022-09-04T01:59:16.575Z,6.47
2022-09-04T02:01:53.317Z,5.72
2022-09-04T02:04:28.808Z,6.00
2022-09-04T02:07:06.176Z,5.95
2022-09-04T02:09:42.844Z,6.30
2022-09-04T02:12:21.167Z,5.88
2022-09-04T02:14:59.471Z,6.45
2022-09-04T02:17:39.163Z,6.97
2022-09-04T02:20:17.820Z,5.75
2022-09-04T02:22:59.943Z,5.85
2022-09-04T02:25:31.375Z,5.80
2022-09-04T02:28:10.866Z,6.15
2022-09-04T02:30:46.750Z,5.97
2022-09-04T02:33:30.256Z,6.32
2022-09-04T02:38:39.447Z,6.28
2022-09-04T02:41:12.687Z,6.68
2022-09-04T02:43:51.932Z,6.70
2022-09-04T02:46:29.112Z,7.00
2022-09-04T02:49:09.201Z,7.28
2022-09-04T02:52:01.801Z,6.85
2022-09-04T02:54:52.399Z,6.88
2022-09-04T02:57:29.860Z,7.53
2022-09-04T03:00:07.911Z,5.72
2022-09-04T03:02:43.088Z,6.32
2022-09-04T03:05:20.051Z,5.88
2022-09-04T03:07:55.567Z,5.63
2022-09-04T03:10:30.868Z,5.72
2022-09-04T03:13:06.337Z,6.15
2022-09-04T03:15:41.414Z,6.53
2022-09-04T03:18:17.934Z,7.20
2022-09-04T03:20:52.644Z,7.40
2022-09-04T03:23:24.952Z,5.47
2022-09-04T03:26:07.907Z,5.82
2022-09-04T03:28:46.925Z,5.35
2022-09-04T03:31:28.096Z,5.25
2022-09-04T03:34:08.955Z,5.70
2022-09-04T03:36:45.231Z,6.30
2022-09-04T03:39:19.982Z,5.35
2022-09-04T03:41:59.587Z,6.60
2022-09-04T03:44:40.456Z,5.57
2022-09-04T03:47:19.140Z,5.65
2022-09-04T03:50:01.016Z,5.88
2022-09-04T03:52:36.916Z,5.03
2022-09-04T03:58:04.945Z,6.35
2022-09-04T04:00:41.857Z,7.28
2022-09-04T04:03:34.065Z,7.03
2022-09-04T04:06:15.217Z,7.88
2022-09-04T04:09:18.695Z,7.28
2022-09-04T04:12:13.350Z,7.80
2022-09-04T04:14:55.754Z,7.30
2022-09-04T04:17:39.271Z,7.50
2022-09-04T04:20:24.531Z,7.57
2022-09-04T04:23:23.444Z,8.50
2022-09-04T04:26:07.965Z,8.73
2022-09-04T04:28:59.531Z,8.30
2022-09-04T04:31:38.944Z,8.32
2022-09-04T04:34:11.804Z,8.43
2022-09-04T04:36:47.749Z,8.50
2022-09-04T04:42:05.859Z,9.25
2022-09-04T04:45:13.147Z,8.45
2022-09-04T04:50:23.145Z,8.68
2022-09-04T04:52:57.391Z,8.07
2022-09-04T04:55:38.929Z,7.82
2022-09-04T04:58:30.785Z,8.00
2022-09-04T05:01:06.888Z,6.72
2022-09-04T05:03:45.979Z,6.38
2022-09-04T05:06:19.796Z,6.25
2022-09-04T05:08:56.670Z,5.85
2022-09-04T05:11:35.492Z,6.40
2022-09-04T05:14:18.320Z,5.82
2022-09-04T05:16:56.009Z,5.75
2022-09-04T05:19:33.441Z,5.53
2022-09-04T05:22:09.627Z,5.55
2022-09-04T05:24:47.769Z,5.25
2022-09-04T05:27:39.448Z,5.25
2022-09-04T05:30:13.052Z,5.68
2022-09-04T05:32:47.292Z,5.47
2022-09-04T05:35:22.293Z,5.70
2022-09-04T05:40:29.258Z,5.88
2022-09-04T05:43:13.122Z,5.70
2022-09-04T05:45:53.595Z,5.90
2022-09-04T05:48:26.638Z,5.60
2022-09-04T05:51:06.015Z,5.53
2022-09-04T05:53:50.085Z,5.40
2022-09-04T05:56:43.654Z,5.65
2022-09-04T05:59:49.100Z,5.70
2022-09-04T06:02:41.179Z,6.18
2022-09-04T06:05:22.128Z,6.05
2022-09-04T06:08:00.119Z,6.88
2022-09-04T06:10:37.072Z,6.38
2022-09-04T06:13:21.984Z,6.93
2022-09-04T06:16:02.621Z,8.45
2022-09-04T06:18:47.574Z,7.15
2022-09-04T06:21:36.728Z,7.32
2022-09-04T06:24:25.298Z,7.20
2022-09-04T06:27:11.492Z,7.57
2022-09-04T06:29:54.133Z,7.65
2022-09-04T06:32:36.809Z,6.85
2022-09-04T06:35:18.387Z,7.95
2022-09-04T06:37:58.517Z,8.00
2022-09-04T06:40:41.767Z,7.07
2022-09-04T06:43:19.425Z,6.57
2022-09-04T06:46:02.129Z,5.95
2022-09-04T06:48:47.870Z,5.78
2022-09-04T06:51:32.670Z,6.37
2022-09-04T06:54:13.539Z,6.00
2022-09-04T06:57:01.296Z,7.80
2022-09-04T06:59:54.295Z,8.95
2022-09-04T07:02:38.475Z,7.90
2022-09-04T07:05:18.863Z,7.40
2022-09-04T07:07:58.576Z,8.00
2022-09-04T07:10:31.206Z,7.35
2022-09-04T07:13:33.715Z,7.50
2022-09-04T07:16:18.889Z,7.45
2022-09-04T07:19:08.842Z,6.55
2022-09-04T07:21:45.268Z,6.95
2022-09-04T07:24:38.617Z,7.55
2022-09-04T07:27:14.195Z,7.50
2022-09-04T07:29:48.681Z,6.93
2022-09-04T07:32:23.283Z,7.40
2022-09-04T07:34:58.530Z,7.28
2022-09-04T07:40:12.602Z,7.72
2022-09-04T07:42:48.160Z,7.40
2022-09-04T07:45:26.258Z,7.30
2022-09-04T07:48:04.061Z,6.75
2022-09-04T07:50:39.980Z,7.20
2022-09-04T07:53:25.460Z,6.57
2022-09-04T07:55:56.915Z,6.65
2022-09-04T07:58:44.127Z,6.97
2022-09-04T08:01:26.415Z,7.05
2022-09-04T08:04:22.089Z,6.30
2022-09-04T08:06:53.295Z,6.60
2022-09-04T08:09:44.979Z,5.90
2022-09-04T08:12:50.770Z,6.85
2022-09-04T08:15:21.718Z,7.03
2022-09-04T08:18:09.208Z,6.13
2022-09-04T08:20:48.982Z,6.25
2022-09-04T08:23:49.948Z,5.30
2022-09-04T08:26:25.406Z,5.90
2022-09-04T08:29:23.941Z,5.70
2022-09-04T08:32:04.534Z,6.25
2022-09-04T08:34:52.839Z,5.80
2022-09-04T08:37:26.709Z,6.05
2022-09-04T08:40:14.759Z,6.40
2022-09-04T08:43:20.299Z,4.60
2022-09-04T08:46:13.336Z,6.17
2022-09-04T08:49:23.960Z,5.03
2022-09-04T08:52:25.057Z,4.95
2022-09-04T08:55:24.135Z,5.20
2022-09-04T08:58:21.508Z,5.43
2022-09-04T09:01:10.536Z,5.13
2022-09-04T09:04:03.950Z,4.40
2022-09-04T09:07:02.815Z,4.30
2022-09-04T09:10:09.324Z,4.00
2022-09-04T09:13:18.040Z,4.20
2022-09-04T09:16:23.140Z,4.60
2022-09-04T09:19:22.597Z,3.88
2022-09-04T09:22:10.389Z,3.38
2022-09-04T09:25:13.460Z,4.10
2022-09-04T09:28:18.232Z,4.30
2022-09-04T09:31:18.404Z,4.72
2022-09-04T09:34:12.279Z,3.97
2022-09-04T09:37:09.021Z,3.97
2022-09-04T09:40:20.688Z,3.15
2022-09-04T09:43:42.056Z,3.60
2022-09-04T09:46:32.576Z,4.13
2022-09-04T09:49:39.630Z,3.22
2022-09-04T09:52:27.508Z,3.65
2022-09-04T09:55:23.717Z,4.00
2022-09-04T09:58:39.057Z,2.88
2022-09-04T10:01:24.590Z,3.67
2022-09-04T10:07:21.214Z,2.90
2022-09-04T10:10:18.124Z,3.47
2022-09-04T10:13:16.120Z,3.33
2022-09-04T10:16:28.410Z,2.65
2022-09-04T10:19:27.168Z,2.35
2022-09-04T10:22:28.658Z,1.80
2022-09-04T10:25:42.199Z,1.63
2022-09-04T10:28:31.627Z,3.20
2022-09-04T10:31:27.748Z,2.38
2022-09-04T10:34:11.631Z,2.00
2022-09-04T10:36:52.995Z,2.22
2022-09-04T10:39:46.828Z,1.92
2022-09-04T10:42:31.227Z,1.50
2022-09-04T10:45:17.806Z,1.75
2022-09-04T10:48:28.458Z,1.85
2022-09-04T10:51:23.259Z,1.20
2022-09-04T10:54:25.921Z,1.70
2022-09-04T10:57:08.022Z,1.30
2022-09-04T10:59:59.196Z,1.55
2022-09-04T11:02:54.942Z,1.27
2022-09-04T11:05:41.312Z,1.67
2022-09-04T11:08:50.209Z,1.63
2022-09-04T11:11:40.144Z,1.42
2022-09-04T11:14:33.401Z,1.48
2022-09-04T11:17:30.469Z,1.25
2022-09-04T11:20:26.211Z,1.50
2022-09-04T11:23:31.166Z,1.55
2022-09-04T11:26:36.179Z,1.55
2022-09-04T11:29:22.740Z,1.45
2022-09-04T11:32:12.195Z,1.70
2022-09-04T11:35:27.480Z,1.63
2022-09-04T11:38:04.341Z,1.50
2022-09-04T11:41:03.612Z,1.30
2022-09-04T11:43:50.302Z,2.10
2022-09-04T11:46:44.149Z,1.60
2022-09-04T11:49:48.260Z,1.33
2022-09-04T11:52:28.445Z,1.70
2022-09-04T11:55:19.306Z,1.27
2022-09-04T11:58:00.251Z,1.08
2022-09-04T12:00:34.227Z,1.42
2022-09-04T12:03:34.123Z,1.00
2022-09-04T12:06:13.702Z,1.60
2022-09-04T12:09:07.182Z,1.02
2022-09-04T12:12:08.101Z,2.47
2022-09-04T12:14:52.043Z,1.58
2022-09-04T12:17:47.440Z,1.48
2022-09-04T12:20:50.485Z,3.22
2022-09-04T12:23:47.666Z,1.30
2022-09-04T12:26:34.565Z,1.50
2022-09-04T12:29:38.584Z,3.78
2022-09-04T12:32:28.511Z,1.65
2022-09-04T12:35:43.843Z,1.40
2022-09-04T12:38:37.651Z,1.30
2022-09-04T12:41:10.284Z,1.52
2022-09-04T12:43:53.557Z,1.40
2022-09-04T12:46:36.351Z,1.70
2022-09-04T12:49:26.049Z,1.38
2022-09-04T12:52:06.176Z,2.47
2022-09-04T12:54:41.133Z,1.42
2022-09-04T12:57:25.274Z,1.33
2022-09-04T13:00:05.653Z,1.23
2022-09-04T13:02:46.859Z,1.35
2022-09-04T13:05:51.731Z,1.67
2022-09-04T13:08:31.463Z,1.58
2022-09-04T13:11:07.872Z,1.52
2022-09-04T13:13:43.858Z,1.50
2022-09-04T13:16:20.323Z,1.50
2022-09-04T13:19:00.087Z,2.70
2022-09-04T13:21:54.840Z,1.75
2022-09-04T13:24:35.714Z,1.50
2022-09-04T13:27:16.191Z,1.63
2022-09-04T13:30:02.877Z,1.40
2022-09-04T13:32:53.420Z,1.70
2022-09-04T13:35:36.761Z,1.90
2022-09-04T13:38:21.200Z,1.88
2022-09-04T13:41:13.745Z,2.40
2022-09-04T13:44:16.165Z,1.80
2022-09-04T13:46:50.596Z,1.73
2022-09-04T13:49:27.194Z,2.10
2022-09-04T13:52:02.211Z,2.22
2022-09-04T13:54:34.951Z,1.55
2022-09-04T13:57:09.325Z,1.50
2022-09-04T13:59:38.229Z,1.83
2022-09-04T14:02:13.184Z,2.00
2022-09-04T14:04:44.873Z,1.63
2022-09-04T14:07:19.599Z,2.20
2022-09-04T14:09:50.897Z,2.13
2022-09-04T14:12:35.428Z,1.70
2022-09-04T14:15:32.715Z,1.80
2022-09-04T14:18:16.127Z,1.80
2022-09-04T14:21:01.358Z,3.00
2022-09-04T14:23:42.184Z,3.47
2022-09-04T14:26:21.727Z,1.77
2022-09-04T14:28:59.568Z,2.17
2022-09-04T14:31:35.108Z,2.05
2022-09-04T14:34:15.977Z,1.63
2022-09-04T14:36:56.439Z,2.05
2022-09-04T14:39:28.946Z,1.80
2022-09-04T14:42:22.141Z,1.42
2022-09-04T14:45:13.173Z,2.40
2022-09-04T14:47:47.197Z,1.50
2022-09-04T14:50:18.191Z,1.73
2022-09-04T14:52:51.323Z,1.65
2022-09-04T14:55:26.468Z,1.33
2022-09-04T14:58:00.729Z,1.60
2022-09-04T15:00:31.300Z,1.52
2022-09-04T15:03:09.656Z,1.42
2022-09-04T15:05:47.264Z,1.45
2022-09-04T15:08:28.820Z,1.70
2022-09-04T15:11:00.627Z,1.60
2022-09-04T15:13:52.911Z,1.20
2022-09-04T15:16:35.563Z,1.42
2022-09-04T15:19:12.641Z,1.38
2022-09-04T15:21:46.387Z,1.42
2022-09-04T15:24:25.778Z,1.23
2022-09-04T15:27:01.384Z,1.77
2022-09-04T15:29:36.615Z,1.83
2022-09-04T15:34:42.675Z,1.88
2022-09-04T15:37:14.352Z,1.40
2022-09-04T15:39:51.163Z,1.45
2022-09-04T15:42:36.110Z,1.67
2022-09-04T15:45:11.105Z,1.80
2022-09-04T15:47:58.048Z,1.40
2022-09-04T15:50:29.188Z,1.52
2022-09-04T15:53:09.960Z,1.50
2022-09-04T15:55:41.152Z,1.30
2022-09-04T15:58:16.716Z,1.40
2022-09-04T16:01:12.001Z,1.63
2022-09-04T16:03:59.986Z,1.40
2022-09-04T16:06:32.090Z,1.13
2022-09-04T16:09:04.692Z,1.42
2022-09-04T16:11:36.100Z,1.30
2022-09-04T16:14:06.337Z,1.30
2022-09-04T16:16:43.114Z,1.30
2022-09-04T16:19:23.743Z,1.50
2022-09-04T16:22:04.585Z,1.48
2022-09-04T16:24:36.486Z,1.40
2022-09-04T16:27:09.640Z,1.55
2022-09-04T16:29:41.841Z,1.60
2022-09-04T16:32:12.149Z,1.58
2022-09-04T16:34:48.996Z,1.15
2022-09-04T16:37:23.464Z,1.35
2022-09-04T16:40:05.598Z,1.40
2022-09-04T16:42:42.273Z,1.13
2022-09-04T16:45:14.931Z,1.42
2022-09-04T16:47:47.129Z,1.30
2022-09-04T16:50:27.157Z,1.40
2022-09-04T16:53:13.591Z,1.60
2022-09-04T16:55:48.688Z,1.20
2022-09-04T16:58:39.812Z,1.30
2022-09-04T17:01:16.783Z,1.50
2022-09-04T17:04:13.133Z,1.27
2022-09-04T17:06:54.098Z,1.30
2022-09-04T17:09:28.543Z,1.27
2022-09-04T17:12:01.373Z,1.35
2022-09-04T17:14:36.246Z,1.52
2022-09-04T17:17:21.539Z,1.45
2022-09-04T17:20:05.339Z,1.77
2022-09-04T17:28:54.077Z,2.20
2022-09-04T17:29:15.231Z,1.48
2022-09-04T17:29:28.128Z,1.55
2022-09-04T17:31:53.530Z,1.55
2022-09-04T17:40:30.447Z,1.50
2022-09-04T17:40:51.766Z,1.58
2022-09-04T17:41:40.151Z,1.65
2022-09-04T17:43:32.806Z,1.20
2022-09-04T17:46:12.546Z,1.55
2022-09-04T17:48:43.585Z,1.20
2022-09-04T17:51:19.196Z,1.50
2022-09-04T17:53:53.135Z,1.10
2022-09-04T17:56:26.217Z,1.23
2022-09-04T17:58:58.040Z,1.45
2022-09-04T18:01:29.870Z,1.50
2022-09-04T18:04:22.849Z,1.33
2022-09-04T18:07:00.542Z,1.20
2022-09-04T18:10:03.762Z,1.27
2022-09-04T18:12:37.696Z,1.23
2022-09-04T18:15:33.219Z,1.63
2022-09-04T18:18:08.621Z,1.70
2022-09-04T18:20:39.996Z,2.08
2022-09-04T18:23:51.516Z,3.47
2022-09-04T18:26:40.081Z,2.15
2022-09-04T18:31:11.305Z,2.10
2022-09-04T18:37:11.681Z,2.42
2022-09-04T18:37:20.413Z,2.45
2022-09-04T18:38:20.343Z,1.73
2022-09-04T18:46:33.279Z,1.60
2022-09-04T18:50:33.210Z,1.40
2022-09-04T18:50:34.150Z,1.60
2022-09-04T18:50:40.488Z,1.80
2022-09-04T18:52:19.258Z,1.75
2022-09-04T18:54:51.880Z,1.58
2022-09-04T18:57:28.008Z,1.73
2022-09-04T19:00:08.778Z,1.80
2022-09-04T19:02:52.891Z,1.77
2022-09-04T19:05:24.273Z,1.65
2022-09-04T19:07:56.961Z,1.52
2022-09-04T19:10:27.927Z,1.52
2022-09-04T19:13:01.766Z,1.88
2022-09-04T19:15:51.741Z,1.80
2022-09-04T19:18:26.802Z,1.67
2022-09-04T19:21:11.195Z,1.70
2022-09-04T19:23:47.379Z,1.90
2022-09-04T19:26:24.387Z,1.85
2022-09-04T19:28:57.222Z,1.60
2022-09-04T19:31:32.679Z,1.63
2022-09-04T19:34:08.754Z,1.65
2022-09-04T19:36:43.675Z,2.17
2022-09-04T19:45:57.587Z,1.77
2022-09-04T19:45:59.935Z,2.28
2022-09-04T19:46:11.290Z,1.50
2022-09-04T19:48:18.336Z,1.85
2022-09-04T19:53:19.252Z,2.05
2022-09-04T19:53:51.978Z,1.85
2022-09-04T19:56:30.329Z,1.50
2022-09-04T19:59:05.752Z,1.98
2022-09-04T20:01:43.301Z,2.00
2022-09-04T20:04:23.661Z,1.58
2022-09-04T20:06:55.783Z,1.77
2022-09-04T20:09:33.063Z,1.90
2022-09-04T20:12:11.109Z,1.90
2022-09-04T20:14:43.210Z,1.98
2022-09-04T20:17:27.309Z,1.92
2022-09-04T20:20:00.390Z,2.10
2022-09-04T20:22:32.791Z,2.20
2022-09-04T20:25:20.147Z,1.75
2022-09-04T20:27:51.865Z,3.30
2022-09-04T20:30:21.149Z,1.88
2022-09-04T20:32:56.588Z,1.50
2022-09-04T20:35:39.023Z,1.48
2022-09-04T20:38:23.489Z,1.60
2022-09-04T20:40:57.171Z,1.80
2022-09-04T20:43:32.014Z,1.70
2022-09-04T20:47:58.204Z,1.57
2022-09-04T20:52:58.242Z,1.65
2022-09-04T20:53:05.236Z,1.90
2022-09-04T20:55:10.913Z,1.50
2022-09-04T21:03:05.322Z,2.03
2022-09-04T21:03:17.934Z,3.80
2022-09-04T21:03:56.461Z,3.47
2022-09-04T21:06:31.049Z,2.05
2022-09-04T21:09:10.088Z,1.80
2022-09-04T21:11:42.161Z,2.05
2022-09-04T21:14:17.494Z,2.13
2022-09-04T21:17:16.987Z,2.13
2022-09-04T21:20:13.637Z,2.10
2022-09-04T21:23:05.369Z,3.15
2022-09-04T21:25:47.541Z,2.50
2022-09-04T21:28:54.691Z,2.00
2022-09-04T21:31:45.538Z,2.25
2022-09-04T21:34:33.283Z,2.40
2022-09-04T21:37:18.104Z,1.70
2022-09-04T21:40:21.641Z,2.00
2022-09-04T21:43:20.725Z,1.92
2022-09-04T21:46:13.065Z,2.22
2022-09-04T21:49:07.942Z,2.25
2022-09-04T21:51:55.457Z,1.77
2022-09-04T21:56:38.102Z,2.50
2022-09-04T22:02:36.514Z,2.25
2022-09-04T22:02:36.517Z,2.50
2022-09-04T22:04:05.502Z,2.22
2022-09-04T22:09:44.460Z,2.60
2022-09-04T22:13:33.919Z,2.33
2022-09-04T22:13:44.032Z,2.10
2022-09-04T22:15:58.981Z,2.38
2022-09-04T22:18:43.850Z,2.55
2022-09-04T22:21:25.571Z,2.53
2022-09-04T22:24:32.960Z,2.45
2022-09-04T22:27:37.682Z,2.55
2022-09-04T22:30:23.461Z,3.80
2022-09-04T22:33:32.353Z,3.58
2022-09-04T22:36:36.211Z,2.80
2022-09-04T22:39:46.665Z,3.20
2022-09-04T22:42:33.196Z,2.03
2022-09-04T22:45:24.836Z,2.67
2022-09-04T22:48:21.965Z,2.72
2022-09-04T22:51:01.816Z,2.92
2022-09-04T22:54:01.283Z,2.55
2022-09-04T22:56:52.714Z,2.70
2022-09-04T22:59:52.980Z,2.75
2022-09-04T23:06:16.175Z,2.80
2022-09-04T23:13:46.718Z,2.72
2022-09-04T23:13:49.105Z,2.50
2022-09-04T23:15:14.892Z,2.45
2022-09-04T23:21:16.627Z,2.85
2022-09-04T23:26:46.441Z,2.95
2022-09-04T23:27:28.727Z,2.90
2022-09-04T23:30:26.539Z,2.40
2022-09-04T23:33:37.905Z,3.17
2022-09-04T23:36:33.195Z,2.40
2022-09-04T23:39:41.816Z,1.87
2022-09-04T23:42:29.358Z,1.77
2022-09-04T23:45:24.258Z,1.55
2022-09-04T23:48:08.859Z,1.60
2022-09-04T23:50:48.104Z,2.05
2022-09-04T23:53:29.407Z,1.73
2022-09-04T23:56:17.402Z,1.70
2022-09-04T23:59:19.025Z,1.90
